createdAt,value
2023-03-04T00:01:36.966Z,34.60
2023-03-04T00:04:24.996Z,33.50
2023-03-04T00:07:17.034Z,30.90
2023-03-04T00:10:08.129Z,28.00
2023-03-04T00:12:55.014Z,31.00
2023-03-04T00:15:44.580Z,28.60
2023-03-04T00:18:31.117Z,28.60
2023-03-04T00:21:23.744Z,29.10
2023-03-04T00:24:12.515Z,29.00
2023-03-04T00:27:02.480Z,27.60
2023-03-04T00:29:51.432Z,29.60
2023-03-04T00:32:38.088Z,29.70
2023-03-04T00:35:24.377Z,28.70
2023-03-04T00:38:17.500Z,28.90
2023-03-04T00:41:03.959Z,27.90
2023-03-04T00:43:50.554Z,29.40
2023-03-04T00:46:38.361Z,30.80
2023-03-04T00:49:25.996Z,29.50
2023-03-04T00:52:16.054Z,32.40
2023-03-04T00:55:06.910Z,31.50
2023-03-04T00:57:55.786Z,30.90
2023-03-04T01:00:42.658Z,33.50
2023-03-04T01:03:31.569Z,30.50
2023-03-04T01:06:23.411Z,33.60
2023-03-04T01:09:13.877Z,32.90
2023-03-04T01:12:00.928Z,34.40
2023-03-04T01:14:47.416Z,34.70
2023-03-04T01:17:36.216Z,35.80
2023-03-04T01:20:22.850Z,34.90
2023-03-04T01:23:09.767Z,37.90
2023-03-04T01:25:56.418Z,34.20
2023-03-04T01:28:47.560Z,36.00
2023-03-04T01:31:34.452Z,35.10
2023-03-04T01:34:23.657Z,35.30
2023-03-04T01:37:13.005Z,34.50
2023-03-04T01:40:08.685Z,36.10
2023-03-04T01:42:55.440Z,35.50
2023-03-04T01:45:45.980Z,36.90
2023-03-04T01:48:38.103Z,38.10
2023-03-04T01:51:26.378Z,37.30
2023-03-04T01:54:13.199Z,40.30
2023-03-04T01:57:01.200Z,38.10
2023-03-04T02:00:28.769Z,35.70
2023-03-04T02:03:19.632Z,35.90
2023-03-04T02:06:06.784Z,35.50
2023-03-04T02:08:53.685Z,35.20
2023-03-04T02:11:40.789Z,37.00
2023-03-04T02:14:28.901Z,38.20
2023-03-04T02:17:15.731Z,38.90
2023-03-04T02:20:18.489Z,35.50
2023-03-04T02:23:32.321Z,37.00
2023-03-04T02:26:23.721Z,35.00
2023-03-04T02:29:12.217Z,34.00
2023-03-04T02:32:05.098Z,32.70
2023-03-04T02:39:50.411Z,31.70
2023-03-04T02:42:37.818Z,32.20
2023-03-04T02:45:45.365Z,33.90
2023-03-04T02:48:33.236Z,33.90
2023-03-04T02:51:20.197Z,33.90
2023-03-04T02:54:20.139Z,33.20
2023-03-04T02:57:10.441Z,36.00
2023-03-04T03:00:01.135Z,34.50
2023-03-04T03:02:48.047Z,36.30
2023-03-04T03:05:35.677Z,34.30
2023-03-04T03:08:41.079Z,34.40
2023-03-04T03:11:27.735Z,35.60
2023-03-04T03:14:19.451Z,35.80
2023-03-04T03:17:06.204Z,37.80
2023-03-04T03:19:53.072Z,36.50
2023-03-04T03:22:40.517Z,37.80
2023-03-04T03:25:27.186Z,36.60
2023-03-04T03:28:16.315Z,35.70
2023-03-04T03:31:03.258Z,37.40
2023-03-04T03:33:50.869Z,34.70
2023-03-04T03:36:37.824Z,35.60
2023-03-04T03:39:24.286Z,35.00
2023-03-04T03:42:11.185Z,33.60
2023-03-04T03:44:58.176Z,37.10
2023-03-04T03:47:45.726Z,35.20
2023-03-04T03:50:33.484Z,34.80
2023-03-04T03:53:20.733Z,35.40
2023-03-04T03:56:07.869Z,35.50
2023-03-04T03:58:54.319Z,33.90
2023-03-04T04:01:42.945Z,33.50
2023-03-04T04:04:29.853Z,33.70
2023-03-04T04:07:16.644Z,33.70
2023-03-04T04:10:05.755Z,34.60
2023-03-04T04:12:52.987Z,34.20
2023-03-04T04:15:40.186Z,35.40
2023-03-04T04:18:29.277Z,32.60
2023-03-04T04:21:15.882Z,33.70
2023-03-04T04:24:02.562Z,31.70
2023-03-04T04:26:49.473Z,33.30
2023-03-04T04:29:36.013Z,34.20
2023-03-04T04:32:22.855Z,32.20
2023-03-04T04:35:09.935Z,32.00
2023-03-04T04:37:56.784Z,32.60
2023-03-04T04:40:45.747Z,31.50
2023-03-04T04:43:32.562Z,29.90
2023-03-04T04:46:19.257Z,30.00
2023-03-04T04:49:07.084Z,33.20
2023-03-04T04:51:53.359Z,28.70
2023-03-04T04:54:40.039Z,28.80
2023-03-04T04:57:26.696Z,30.80
2023-03-04T05:00:14.072Z,29.80
2023-03-04T05:03:00.464Z,29.60
2023-03-04T05:05:47.502Z,29.90
2023-03-04T05:08:34.760Z,27.90
2023-03-04T05:11:23.901Z,29.40
2023-03-04T05:14:10.481Z,28.60
2023-03-04T05:16:57.215Z,26.50
2023-03-04T05:19:43.716Z,29.70
2023-03-04T05:25:22.693Z,29.40
2023-03-04T05:28:37.657Z,27.60
2023-03-04T05:33:33.498Z,27.20
2023-03-04T05:36:58.735Z,27.90
2023-03-04T05:40:36.396Z,26.40
2023-03-04T05:43:25.157Z,27.10
2023-03-04T05:46:38.548Z,25.80
2023-03-04T05:49:43.203Z,25.90
2023-03-04T05:53:30.365Z,22.60
2023-03-04T05:57:15.261Z,24.30
2023-03-04T06:01:07.958Z,24.30
2023-03-04T06:03:58.690Z,24.30
2023-03-04T06:07:05.637Z,24.90
2023-03-04T06:10:27.145Z,24.30
2023-03-04T06:14:09.204Z,25.80
2023-03-04T06:17:44.848Z,23.50
2023-03-04T06:21:30.007Z,22.90
2023-03-04T06:24:28.324Z,24.00
2023-03-04T06:28:14.796Z,26.20
2023-03-04T06:31:10.655Z,22.50
2023-03-04T06:34:23.136Z,22.80
2023-03-04T06:38:11.979Z,23.40
2023-03-04T06:45:32.500Z,21.20
2023-03-04T06:48:31.392Z,22.10
2023-03-04T06:51:45.711Z,23.40
2023-03-04T06:55:07.119Z,22.60
2023-03-04T06:58:14.504Z,23.00
2023-03-04T07:01:26.258Z,25.90
2023-03-04T07:04:15.045Z,24.00
2023-03-04T07:07:02.885Z,21.90
2023-03-04T07:23:36.309Z,21.30
2023-03-04T07:27:09.694Z,18.50
2023-03-04T07:30:46.272Z,23.50
2023-03-04T07:34:16.059Z,19.90
2023-03-04T07:41:45.638Z,22.10
2023-03-04T07:47:59.025Z,21.10
2023-03-04T07:52:55.487Z,20.50
2023-03-04T07:56:29.154Z,23.90
2023-03-04T07:59:34.720Z,21.60
2023-03-04T08:02:24.484Z,21.80
2023-03-04T08:06:15.513Z,19.50
2023-03-04T08:09:36.917Z,21.10
2023-03-04T08:13:55.371Z,20.70
2023-03-04T08:17:58.866Z,22.10
2023-03-04T08:21:27.175Z,16.70
2023-03-04T08:26:07.387Z,20.30
2023-03-04T08:30:30.032Z,19.10
2023-03-04T08:34:29.805Z,17.20
2023-03-04T08:37:41.443Z,18.00
2023-03-04T08:41:58.049Z,22.70
2023-03-04T09:01:36.648Z,19.40
2023-03-04T09:05:12.966Z,17.60
2023-03-04T09:08:00.044Z,20.40
2023-03-04T09:10:53.324Z,20.50
2023-03-04T09:13:42.240Z,21.00
2023-03-04T09:16:29.300Z,18.70
2023-03-04T09:21:13.110Z,21.20
2023-03-04T09:26:08.047Z,20.90
2023-03-04T09:29:12.509Z,19.90
2023-03-04T09:48:55.803Z,19.90
2023-03-04T09:52:32.042Z,18.50
2023-03-04T09:55:40.541Z,17.90
2023-03-04T09:59:23.435Z,19.10
2023-03-04T10:02:37.849Z,21.10
2023-03-04T10:05:33.861Z,21.80
2023-03-04T10:09:29.545Z,19.60
2023-03-04T10:13:05.010Z,19.60
2023-03-04T10:20:36.233Z,18.50
2023-03-04T10:24:32.920Z,20.50
2023-03-04T10:28:39.835Z,18.50
2023-03-04T10:40:05.207Z,20.70
2023-03-04T10:43:22.363Z,22.30
2023-03-04T10:47:44.307Z,17.20
2023-03-04T10:52:00.329Z,18.60
2023-03-04T10:55:22.371Z,22.90
2023-03-04T10:58:31.649Z,22.40
2023-03-04T11:01:25.575Z,25.30
2023-03-04T11:06:23.406Z,22.10
2023-03-04T11:23:52.569Z,21.80
2023-03-04T13:40:20.604Z,9.30
2023-03-04T13:43:48.453Z,6.80
2023-03-04T13:47:24.394Z,5.80
2023-03-04T13:52:41.115Z,4.80
2023-03-04T13:56:37.456Z,3.20
2023-03-04T13:59:56.186Z,6.70
2023-03-04T14:14:46.041Z,5.00
2023-03-04T14:17:59.274Z,5.80
2023-03-04T14:21:37.050Z,5.90
2023-03-04T14:24:48.772Z,6.00
2023-03-04T14:28:28.078Z,6.20
2023-03-04T14:31:18.709Z,5.00
2023-03-04T14:34:06.958Z,5.20
2023-03-04T14:36:53.865Z,5.80
2023-03-04T14:40:05.081Z,4.80
2023-03-04T14:43:21.839Z,5.30
2023-03-04T14:47:07.979Z,4.40
2023-03-04T14:54:08.989Z,6.20
2023-03-04T14:58:23.754Z,3.60
2023-03-04T15:02:00.980Z,4.30
2023-03-04T15:06:43.834Z,4.10
2023-03-04T15:11:22.775Z,6.00
2023-03-04T15:19:02.690Z,3.80
2023-03-04T15:21:48.349Z,5.10
2023-03-04T15:24:33.760Z,3.90
2023-03-04T15:27:23.939Z,2.70
2023-03-04T15:30:20.913Z,3.40
2023-03-04T15:33:09.598Z,3.70
2023-03-04T15:35:57.917Z,4.30
2023-03-04T15:38:52.058Z,4.50
2023-03-04T15:41:37.000Z,4.90
2023-03-04T15:44:22.194Z,4.20
2023-03-04T15:47:13.292Z,4.60
2023-03-04T15:50:00.237Z,4.30
2023-03-04T15:52:45.473Z,4.90
2023-03-04T15:55:32.387Z,4.30
2023-03-04T15:58:18.088Z,6.00
2023-03-04T16:01:04.515Z,4.60
2023-03-04T16:05:38.231Z,3.90
2023-03-04T16:09:35.737Z,5.60
2023-03-04T16:13:54.117Z,4.40
2023-03-04T16:18:32.202Z,5.20
2023-03-04T16:21:25.423Z,4.40
2023-03-04T16:24:51.858Z,5.10
2023-03-04T16:27:40.772Z,4.30
2023-03-04T16:30:53.501Z,4.90
2023-03-04T16:33:40.864Z,4.40
2023-03-04T16:37:32.503Z,4.90
2023-03-04T16:46:51.322Z,3.60
2023-03-04T16:50:53.898Z,4.00
2023-03-04T16:54:06.268Z,5.00
2023-03-04T16:57:49.278Z,4.80
2023-03-04T17:01:21.467Z,4.10
2023-03-04T17:04:15.842Z,4.40
2023-03-04T17:07:11.079Z,3.60
2023-03-04T17:10:00.167Z,3.30
2023-03-04T17:13:09.454Z,4.70
2023-03-04T17:18:39.884Z,3.60
2023-03-04T17:26:59.380Z,3.80
2023-03-04T17:30:12.895Z,2.80
2023-03-04T17:33:24.447Z,4.10
2023-03-04T17:36:45.336Z,4.80
2023-03-04T17:44:48.459Z,3.80
2023-03-04T17:47:59.674Z,2.90
2023-03-04T17:51:52.134Z,3.60
2023-03-04T17:55:50.432Z,3.30
2023-03-04T18:03:56.093Z,4.10
2023-03-04T18:06:45.216Z,3.90
2023-03-04T18:09:47.398Z,5.70
2023-03-04T18:13:49.374Z,3.70
2023-03-04T18:17:17.957Z,4.90
2023-03-04T18:20:59.500Z,4.90
2023-03-04T18:24:47.381Z,4.80
2023-03-04T18:28:50.323Z,6.90
2023-03-04T18:32:51.705Z,6.60
2023-03-04T18:36:13.999Z,2.10
2023-03-04T18:39:34.647Z,3.00
2023-03-04T18:42:23.508Z,3.70
2023-03-04T18:45:30.959Z,4.70
2023-03-04T19:18:19.468Z,4.20
2023-03-04T19:44:13.100Z,4.10
2023-03-04T19:48:11.991Z,4.50
2023-03-04T19:57:16.039Z,5.00
2023-03-04T20:15:57.857Z,5.90
2023-03-04T20:23:39.451Z,7.10
2023-03-04T21:54:53.717Z,8.50
2023-03-04T22:55:57.400Z,6.80
2023-03-04T22:59:56.293Z,5.00
2023-03-04T23:39:09.936Z,5.00
